Time;durP1;ratioP1;P1;durP2;ratioP2;P2;SDS_P1;SDS_P2;PMS_P1;PMS_P2;Temp;Humidity;BMP_temperature;BMP_pressure;BME280_temperature;BME280_humidity;BME280_pressure;Samples;Min_cycle;Max_cycle;Signal;HPM_P1;HPM_P2
2021/12/09 00:01:07;;;;;;;13.40;3.55;;;;;;;;;;5051499;28;20032;-68
2021/12/09 00:03:39;;;;;;;5.90;2.40;;;;;;;;;;5052632;28;20017;-68
2021/12/09 00:06:05;;;;;;;14.82;3.17;;;;;;;;;;5052401;28;20112;-68
2021/12/09 00:08:30;;;;;;;16.83;4.63;;;;;;;;;;5052128;28;20100;-68
2021/12/09 00:10:57;;;;;;;21.20;3.47;;;;;;;;;;5051717;28;20148;-67
2021/12/09 00:13:22;;;;;;;16.27;4.07;;;;;;;;;;5051882;28;20033;-67
2021/12/09 00:15:48;;;;;;;14.82;4.47;;;;;;;;;;5051651;28;20023;-68
2021/12/09 00:18:13;;;;;;;20.27;4.32;;;;;;;;;;5052241;28;20028;-67
2021/12/09 00:20:38;;;;;;;12.25;3.55;;;;;;;;;;5051812;28;20481;-67
2021/12/09 00:23:03;;;;;;;12.52;3.67;;;;;;;;;;5051861;28;20537;-68
2021/12/09 00:25:32;;;;;;;12.27;3.70;;;;;;;;;;5051426;28;20021;-68
2021/12/09 00:28:00;;;;;;;9.57;3.70;;;;;;;;;;5051784;28;20028;-67
2021/12/09 00:30:34;;;;;;;13.05;3.97;;;;;;;;;;5049651;28;20036;-66
2021/12/09 00:33:05;;;;;;;19.50;3.67;;;;;;;;;;5051953;28;20032;-67
2021/12/09 00:35:41;;;;;;;11.07;3.45;;;;;;;;;;5052091;28;20036;-68
2021/12/09 00:38:13;;;;;;;13.77;4.55;;;;;;;;;;5051945;28;20027;-68
2021/12/09 00:41:24;;;;;;;10.85;4.18;;;;;;;;;;5051176;28;20075;-69
2021/12/09 00:43:52;;;;;;;16.02;4.10;;;;;;;;;;5040870;28;20516;-68
2021/12/09 00:46:22;;;;;;;12.32;3.88;;;;;;;;;;5051036;28;20071;-68
2021/12/09 00:49:06;;;;;;;10.70;3.83;;;;;;;;;;5050395;28;20048;-69
2021/12/09 00:51:34;;;;;;;12.20;3.63;;;;;;;;;;5051128;28;20028;-68
2021/12/09 00:54:03;;;;;;;12.60;3.78;;;;;;;;;;5049151;28;20028;-68
2021/12/09 00:56:31;;;;;;;17.42;4.07;;;;;;;;;;5051233;28;20027;-68
2021/12/09 00:58:59;;;;;;;14.65;4.15;;;;;;;;;;5050722;28;20029;-68
2021/12/09 01:01:29;;;;;;;15.90;5.60;;;;;;;;;;5049444;28;20044;-68
2021/12/09 01:04:05;;;;;;;12.77;3.90;;;;;;;;;;5051381;28;20021;-67
2021/12/09 01:06:30;;;;;;;23.52;4.68;;;;;;;;;;5051109;28;20017;-68
2021/12/09 01:08:58;;;;;;;18.58;4.00;;;;;;;;;;5050738;28;20020;-68
2021/12/09 01:11:29;;;;;;;16.08;4.22;;;;;;;;;;5050797;28;20029;-68
2021/12/09 01:13:54;;;;;;;13.75;3.78;;;;;;;;;;5051052;28;20017;-68
2021/12/09 01:16:19;;;;;;;12.10;4.63;;;;;;;;;;5050583;28;20052;-68
2021/12/09 01:18:45;;;;;;;17.58;3.72;;;;;;;;;;5050622;28;20033;-68
2021/12/09 01:21:15;;;;;;;19.15;4.25;;;;;;;;;;5050694;28;20115;-68
2021/12/09 01:23:54;;;;;;;12.07;3.25;;;;;;;;;;5051110;28;20470;-68
2021/12/09 01:26:19;;;;;;;6.95;2.90;;;;;;;;;;5050734;28;20021;-68
2021/12/09 01:28:56;;;;;;;17.20;5.72;;;;;;;;;;5050711;28;20013;-68
2021/12/09 01:31:32;;;;;;;14.32;3.85;;;;;;;;;;5050221;28;20017;-68
2021/12/09 01:34:02;;;;;;;7.10;3.05;;;;;;;;;;5032059;28;20040;-68
2021/12/09 01:36:27;;;;;;;;;;;;;;;;;;5050815;28;20226;-68
2021/12/09 01:38:53;;;;;;;11.60;3.50;;;;;;;;;;5050770;28;19908;-67
2021/12/09 01:41:18;;;;;;;5.22;2.20;;;;;;;;;;5050023;28;20493;-67
2021/12/09 01:43:49;;;;;;;7.00;2.20;;;;;;;;;;5050323;28;20102;-68
2021/12/09 01:46:23;;;;;;;7.07;1.98;;;;;;;;;;5050270;28;20027;-68
2021/12/09 01:48:54;;;;;;;7.35;2.47;;;;;;;;;;5050373;28;20392;-67
2021/12/09 01:51:20;;;;;;;16.40;3.28;;;;;;;;;;5048667;28;20094;-68
2021/12/09 01:53:45;;;;;;;7.15;3.22;;;;;;;;;;5042052;28;20017;-68
2021/12/09 01:56:20;;;;;;;14.25;2.47;;;;;;;;;;5047074;28;20023;-68
2021/12/09 01:58:48;;;;;;;9.15;2.97;;;;;;;;;;5050178;28;20028;-68
2021/12/09 02:01:22;;;;;;;11.68;4.00;;;;;;;;;;5049803;28;20064;-68
2021/12/09 02:03:50;;;;;;;13.35;2.35;;;;;;;;;;5040837;28;20369;-68
2021/12/09 02:06:15;;;;;;;17.98;3.92;;;;;;;;;;5049900;28;20036;-67
2021/12/09 02:08:43;;;;;;;20.10;3.67;;;;;;;;;;5049236;28;20017;-68
2021/12/09 02:11:09;;;;;;;17.13;3.28;;;;;;;;;;5031091;28;20374;-68
2021/12/09 02:13:43;;;;;;;22.33;3.90;;;;;;;;;;5049351;28;20028;-68
2021/12/09 02:16:20;;;;;;;26.85;3.08;;;;;;;;;;5049841;28;20059;-68
2021/12/09 02:18:48;;;;;;;9.43;2.70;;;;;;;;;;5048286;28;20028;-68
2021/12/09 02:21:15;;;;;;;11.50;1.70;;;;;;;;;;5049607;28;20024;-68
2021/12/09 02:23:51;;;;;;;9.38;3.33;;;;;;;;;;5048726;28;20071;-68
2021/12/09 02:26:20;;;;;;;4.30;2.50;;;;;;;;;;5050065;28;20017;-68
2021/12/09 02:28:48;;;;;;;12.70;3.90;;;;;;;;;;5049526;28;20071;-68
2021/12/09 02:31:14;;;;;;;6.60;1.70;;;;;;;;;;5031628;28;20067;-67
2021/12/09 02:33:39;;;;;;;5.18;2.20;;;;;;;;;;5049837;28;20029;-68
2021/12/09 02:36:08;;;;;;;12.30;4.30;;;;;;;;;;5049962;28;20060;-68
2021/12/09 02:38:41;;;;;;;15.32;3.33;;;;;;;;;;5049737;28;20033;-68
2021/12/09 02:41:23;;;;;;;9.43;1.95;;;;;;;;;;5048926;28;20035;-68
2021/12/09 02:43:56;;;;;;;11.68;2.63;;;;;;;;;;5049164;28;20497;-67
2021/12/09 02:46:26;;;;;;;14.88;4.32;;;;;;;;;;5049194;28;20060;-68
2021/12/09 02:48:54;;;;;;;9.60;2.67;;;;;;;;;;5050107;28;20121;-68
2021/12/09 02:51:27;;;;;;;7.45;2.45;;;;;;;;;;5049110;28;20021;-68
2021/12/09 02:53:52;;;;;;;9.88;2.22;;;;;;;;;;5049444;28;20467;-67
2021/12/09 02:56:26;;;;;;;10.50;3.80;;;;;;;;;;5049393;28;20051;-68
2021/12/09 02:58:57;;;;;;;14.27;3.55;;;;;;;;;;5049399;28;20055;-68
2021/12/09 03:01:25;;;;;;;8.48;2.42;;;;;;;;;;5049230;28;20388;-68
2021/12/09 03:03:55;;;;;;;19.50;4.43;;;;;;;;;;5049644;28;20029;-68
2021/12/09 03:06:36;;;;;;;11.40;3.47;;;;;;;;;;5049932;28;20024;-68
2021/12/09 03:09:04;;;;;;;15.63;3.63;;;;;;;;;;5049475;28;20113;-68
2021/12/09 03:11:30;;;;;;;13.80;3.35;;;;;;;;;;5049058;28;20052;-68
2021/12/09 03:13:59;;;;;;;9.85;3.35;;;;;;;;;;5049591;28;20056;-68
2021/12/09 03:16:27;;;;;;;7.10;2.75;;;;;;;;;;5048704;28;20032;-68
2021/12/09 03:18:58;;;;;;;13.82;4.07;;;;;;;;;;5049082;28;20040;-69
2021/12/09 03:21:35;;;;;;;16.83;3.15;;;;;;;;;;5044630;28;21448;-67
2021/12/09 03:24:08;;;;;;;12.27;3.83;;;;;;;;;;5029662;28;20029;-68
2021/12/09 03:26:41;;;;;;;12.05;3.65;;;;;;;;;;5047773;28;20048;-67
2021/12/09 03:29:14;;;;;;;12.52;2.70;;;;;;;;;;5049054;28;20519;-68
2021/12/09 03:31:50;;;;;;;10.90;3.00;;;;;;;;;;5052080;28;20024;-67
2021/12/09 03:34:22;;;;;;;9.20;2.85;;;;;;;;;;5033904;28;20028;-68
2021/12/09 03:36:51;;;;;;;9.68;3.15;;;;;;;;;;5039908;28;20292;-68
2021/12/09 03:39:21;;;;;;;12.93;3.10;;;;;;;;;;5052950;28;20048;-68
2021/12/09 03:41:50;;;;;;;11.18;3.05;;;;;;;;;;5052551;28;20021;-67
2021/12/09 03:44:19;;;;;;;15.85;3.20;;;;;;;;;;5052463;28;20024;-68
2021/12/09 03:46:50;;;;;;;8.75;2.90;;;;;;;;;;5051387;28;20017;-67
2021/12/09 03:49:18;;;;;;;7.80;2.85;;;;;;;;;;5052768;28;20017;-68
2021/12/09 03:51:50;;;;;;;11.02;3.08;;;;;;;;;;5052284;28;20015;-67
2021/12/09 03:54:15;;;;;;;8.15;2.95;;;;;;;;;;5052186;28;20017;-68
2021/12/09 03:56:44;;;;;;;4.35;2.00;;;;;;;;;;5052335;28;20385;-67
2021/12/09 03:59:10;;;;;;;11.48;3.20;;;;;;;;;;5052241;28;20024;-68
2021/12/09 04:01:39;;;;;;;8.38;2.92;;;;;;;;;;5052057;28;20111;-68
2021/12/09 04:04:05;;;;;;;16.13;3.17;;;;;;;;;;5068156;22;20052;-69
2021/12/09 04:06:30;;;;;;;7.28;3.08;;;;;;;;;;5031455;28;20403;-69
2021/12/09 04:08:56;;;;;;;17.85;3.25;;;;;;;;;;5031332;28;20021;-69
2021/12/09 04:11:21;;;;;;;9.50;3.28;;;;;;;;;;5032150;28;20364;-69
2021/12/09 04:13:46;;;;;;;14.02;3.38;;;;;;;;;;5026361;28;20107;-69
2021/12/09 04:16:12;;;;;;;11.77;2.95;;;;;;;;;;5031723;28;20030;-69
2021/12/09 04:18:38;;;;;;;11.98;3.28;;;;;;;;;;5032426;28;20373;-68
2021/12/09 04:21:04;;;;;;;7.20;3.08;;;;;;;;;;5031231;28;20030;-69
2021/12/09 04:23:30;;;;;;;10.60;3.58;;;;;;;;;;5031704;28;20521;-69
2021/12/09 04:25:55;;;;;;;12.48;3.25;;;;;;;;;;5030823;28;20025;-69
2021/12/09 04:28:21;;;;;;;18.70;3.47;;;;;;;;;;5031325;28;20021;-69
2021/12/09 04:30:46;;;;;;;15.85;3.50;;;;;;;;;;5030378;28;20036;-69
2021/12/09 04:33:11;;;;;;;6.32;2.60;;;;;;;;;;5031191;28;20097;-69
2021/12/09 04:35:36;;;;;;;5.00;2.88;;;;;;;;;;5031372;28;20036;-69
2021/12/09 04:38:02;;;;;;;9.43;2.83;;;;;;;;;;5031328;28;20470;-70
2021/12/09 04:40:27;;;;;;;8.98;3.60;;;;;;;;;;5031401;28;20021;-69
2021/12/09 04:42:52;;;;;;;8.07;2.80;;;;;;;;;;5030590;28;20491;-70
2021/12/09 04:45:18;;;;;;;10.98;3.33;;;;;;;;;;5031335;28;20026;-68
2021/12/09 04:47:43;;;;;;;12.07;3.90;;;;;;;;;;5031445;28;20030;-70
2021/12/09 04:50:09;;;;;;;11.02;3.25;;;;;;;;;;5030820;28;20014;-68
2021/12/09 04:52:34;;;;;;;14.60;3.33;;;;;;;;;;5016415;28;20151;-70
2021/12/09 04:54:59;;;;;;;10.32;3.05;;;;;;;;;;5029492;28;20604;-70
2021/12/09 04:57:25;;;;;;;12.70;3.53;;;;;;;;;;5017175;28;20028;-67
2021/12/09 04:59:51;;;;;;;14.60;3.33;;;;;;;;;;5022993;28;20025;-70
2021/12/09 05:02:32;;;;;;;10.40;3.33;;;;;;;;;;5030632;28;20108;-70
2021/12/09 05:04:57;;;;;;;15.40;3.40;;;;;;;;;;5030941;28;20029;-69
2021/12/09 05:07:23;;;;;;;13.55;3.80;;;;;;;;;;5030896;28;20504;-70
2021/12/09 05:09:51;;;;;;;13.50;3.05;;;;;;;;;;5030881;28;20414;-70
2021/12/09 05:12:17;;;;;;;12.30;3.47;;;;;;;;;;5030740;28;20048;-70
2021/12/09 05:14:44;;;;;;;12.73;3.83;;;;;;;;;;5031078;28;20429;-68
2021/12/09 05:17:10;;;;;;;10.50;3.00;;;;;;;;;;5030206;28;20037;-70
2021/12/09 05:19:35;;;;;;;9.82;2.97;;;;;;;;;;5030611;28;20302;-70
2021/12/09 05:22:00;;;;;;;10.25;2.85;;;;;;;;;;5030724;28;20332;-70
2021/12/09 05:24:26;;;;;;;9.90;2.78;;;;;;;;;;5028034;28;20405;-69
2021/12/09 05:26:54;;;;;;;8.13;3.10;;;;;;;;;;5027150;28;20535;-70
2021/12/09 05:29:22;;;;;;;11.50;3.35;;;;;;;;;;5028294;28;20108;-70
2021/12/09 05:34:31;;;;;;;10.75;3.10;;;;;;;;;;5028893;28;20471;-70
2021/12/09 05:36:56;;;;;;;15.52;3.50;;;;;;;;;;5028947;28;20025;-70
2021/12/09 05:39:22;;;;;;;10.02;2.92;;;;;;;;;;5028530;28;20018;-69
2021/12/09 05:41:47;;;;;;;9.93;3.25;;;;;;;;;;5028317;28;20021;-70
2021/12/09 05:44:13;;;;;;;17.10;4.20;;;;;;;;;;5010390;28;20021;-69
2021/12/09 05:46:40;;;;;;;10.48;3.10;;;;;;;;;;5028951;28;20052;-69
2021/12/09 05:49:06;;;;;;;15.23;3.42;;;;;;;;;;5028319;28;20025;-70
2021/12/09 05:51:31;;;;;;;12.80;2.92;;;;;;;;;;5010891;28;20041;-69
2021/12/09 05:53:56;;;;;;;17.42;3.63;;;;;;;;;;5027608;28;20033;-70
2021/12/09 05:56:22;;;;;;;8.48;3.28;;;;;;;;;;5028674;28;20469;-70
2021/12/09 05:58:47;;;;;;;12.68;3.10;;;;;;;;;;5027547;28;20086;-68
2021/12/09 06:01:13;;;;;;;16.63;4.20;;;;;;;;;;5034798;28;20092;-70
2021/12/09 06:03:38;;;;;;;14.15;3.58;;;;;;;;;;5031436;28;20029;-71
2021/12/09 06:06:03;;;;;;;12.85;4.18;;;;;;;;;;5025288;28;20017;-69
2021/12/09 06:08:29;;;;;;;9.27;3.60;;;;;;;;;;5016720;28;20037;-70
2021/12/09 06:10:54;;;;;;;13.13;3.80;;;;;;;;;;5027689;28;20025;-70
2021/12/09 06:13:22;;;;;;;11.85;4.10;;;;;;;;;;5027104;28;20071;-69
2021/12/09 06:15:47;;;;;;;14.70;3.60;;;;;;;;;;5026841;28;20440;-71
2021/12/09 06:18:12;;;;;;;16.50;3.95;;;;;;;;;;5027374;28;20052;-70
2021/12/09 06:20:37;;;;;;;18.27;3.65;;;;;;;;;;5027594;28;20025;-71
2021/12/09 06:23:03;;;;;;;9.63;3.30;;;;;;;;;;5009961;28;20033;-70
2021/12/09 06:25:28;;;;;;;10.40;3.45;;;;;;;;;;5027790;28;20025;-71
2021/12/09 06:27:57;;;;;;;13.23;3.17;;;;;;;;;;5027029;28;20457;-70
2021/12/09 06:30:23;;;;;;;8.52;3.25;;;;;;;;;;5027993;28;20021;-71
2021/12/09 06:32:48;;;;;;;16.90;4.18;;;;;;;;;;5033297;28;20466;-71
2021/12/09 06:35:13;;;;;;;12.23;3.47;;;;;;;;;;5032640;28;20029;-71
2021/12/09 06:37:43;;;;;;;15.55;3.55;;;;;;;;;;5030722;28;20059;-71
2021/12/09 06:40:09;;;;;;;16.27;3.70;;;;;;;;;;5032819;28;20025;-71
2021/12/09 06:42:34;;;;;;;10.52;3.58;;;;;;;;;;5027171;28;20018;-70
2021/12/09 06:44:59;;;;;;;8.55;2.45;;;;;;;;;;5021310;28;20026;-71
2021/12/09 06:47:24;;;;;;;9.15;3.50;;;;;;;;;;5026517;28;20112;-70
2021/12/09 06:49:50;;;;;;;28.63;4.35;;;;;;;;;;5025832;28;20049;-71
2021/12/09 06:52:16;;;;;;;9.55;3.92;;;;;;;;;;5027405;28;20013;-71
2021/12/09 06:54:41;;;;;;;17.80;4.05;;;;;;;;;;5027567;28;20359;-71
2021/12/09 06:57:06;;;;;;;10.95;3.22;;;;;;;;;;5029033;28;20041;-71
2021/12/09 06:59:32;;;;;;;10.48;3.22;;;;;;;;;;5029626;28;20356;-71
2021/12/09 07:01:57;;;;;;;15.18;3.42;;;;;;;;;;5029186;28;20083;-70
2021/12/09 07:04:22;;;;;;;11.10;4.10;;;;;;;;;;5029403;28;20443;-71
2021/12/09 07:06:48;;;;;;;11.85;3.88;;;;;;;;;;5032173;28;20018;-71
2021/12/09 07:09:13;;;;;;;16.85;3.85;;;;;;;;;;5033199;28;20022;-71
2021/12/09 07:11:39;;;;;;;3.58;2.67;;;;;;;;;;5032928;28;20100;-71
2021/12/09 07:14:04;;;;;;;12.90;5.25;;;;;;;;;;5032687;28;20112;-71
2021/12/09 07:16:30;;;;;;;20.08;5.63;;;;;;;;;;5032019;28;20040;-70
2021/12/09 07:18:56;;;;;;;18.17;5.03;;;;;;;;;;5032228;28;20073;-70
2021/12/09 07:21:21;;;;;;;11.30;4.53;;;;;;;;;;5032045;28;20025;-71
2021/12/09 07:23:46;;;;;;;17.35;5.25;;;;;;;;;;5031691;28;20032;-71
2021/12/09 07:26:11;;;;;;;11.15;3.25;;;;;;;;;;5033188;28;20018;-71
2021/12/09 07:28:37;;;;;;;4.68;2.58;;;;;;;;;;5032976;28;20486;-71
2021/12/09 07:31:02;;;;;;;7.78;2.80;;;;;;;;;;5014974;28;20021;-71
2021/12/09 07:33:28;;;;;;;14.02;4.25;;;;;;;;;;5032757;28;20030;-71
2021/12/09 07:35:53;;;;;;;10.65;3.92;;;;;;;;;;5033270;28;20032;-71
2021/12/09 07:38:18;;;;;;;17.92;5.55;;;;;;;;;;5033540;28;20036;-68
2021/12/09 07:40:43;;;;;;;13.25;3.70;;;;;;;;;;5032953;28;20547;-71
2021/12/09 07:43:09;;;;;;;7.90;2.60;;;;;;;;;;5015146;28;20021;-68
2021/12/09 07:45:34;;;;;;;16.48;3.20;;;;;;;;;;5033099;28;20013;-70
2021/12/09 07:47:59;;;;;;;16.65;5.75;;;;;;;;;;5032323;28;20025;-67
2021/12/09 07:50:28;;;;;;;2.85;1.75;;;;;;;;;;5029850;28;20064;-71
2021/12/09 07:52:53;;;;;;;7.95;3.65;;;;;;;;;;5030983;28;20033;-71
2021/12/09 07:55:20;;;;;;;13.45;3.25;;;;;;;;;;5028689;28;20018;-70
2021/12/09 07:57:45;;;;;;;4.47;2.15;;;;;;;;;;5030519;28;20021;-71
2021/12/09 08:00:12;;;;;;;13.40;4.47;;;;;;;;;;5032242;28;20021;-71
2021/12/09 08:02:41;;;;;;;15.63;3.70;;;;;;;;;;5031836;28;20077;-71
2021/12/09 08:05:07;;;;;;;10.20;2.35;;;;;;;;;;5032177;28;20029;-71
2021/12/09 08:07:33;;;;;;;14.23;4.30;;;;;;;;;;5029732;28;20100;-70
2021/12/09 08:09:58;;;;;;;14.65;4.35;;;;;;;;;;5032712;28;20100;-71
2021/12/09 08:12:23;;;;;;;17.02;3.88;;;;;;;;;;5032298;28;20759;-72
2021/12/09 08:14:48;;;;;;;6.05;2.22;;;;;;;;;;5032471;28;20025;-71
2021/12/09 08:19:59;;;;;;;5.90;2.13;;;;;;;;;;5028825;28;20072;-72
2021/12/09 08:22:24;;;;;;;3.85;2.05;;;;;;;;;;5029901;28;20044;-72
2021/12/09 08:24:51;;;;;;;4.78;2.13;;;;;;;;;;5032450;28;20060;-70
2021/12/09 08:27:16;;;;;;;13.27;4.05;;;;;;;;;;5031853;28;20036;-71
2021/12/09 08:29:41;;;;;;;4.90;2.60;;;;;;;;;;5031784;28;20026;-72
2021/12/09 08:32:07;;;;;;;12.13;3.33;;;;;;;;;;5031782;28;20478;-71
2021/12/09 08:34:32;;;;;;;11.32;4.72;;;;;;;;;;5032084;28;20063;-71
2021/12/09 08:36:57;;;;;;;10.98;3.78;;;;;;;;;;5031456;28;20025;-72
2021/12/09 08:39:22;;;;;;;7.10;2.60;;;;;;;;;;5031874;28;20064;-72
2021/12/09 08:41:48;;;;;;;7.47;2.55;;;;;;;;;;5031615;28;20031;-72
2021/12/09 08:44:13;;;;;;;11.63;4.22;;;;;;;;;;5031234;28;20096;-72
2021/12/09 08:46:39;;;;;;;12.25;3.50;;;;;;;;;;5031965;28;20091;-71
2021/12/09 08:49:04;;;;;;;16.90;4.57;;;;;;;;;;5031145;28;20022;-70
2021/12/09 08:51:29;;;;;;;16.98;4.20;;;;;;;;;;5031148;28;20029;-72
2021/12/09 08:53:55;;;;;;;19.60;5.05;;;;;;;;;;5030973;28;20080;-71
2021/12/09 08:56:20;;;;;;;8.90;3.67;;;;;;;;;;5031510;28;20036;-72
2021/12/09 08:58:46;;;;;;;13.98;4.78;;;;;;;;;;5030760;28;20113;-72
2021/12/09 09:01:15;;;;;;;13.88;4.43;;;;;;;;;;5030793;28;20111;-71
2021/12/09 09:03:40;;;;;;;20.60;4.20;;;;;;;;;;5031731;28;20049;-72
2021/12/09 09:06:05;;;;;;;6.35;3.33;;;;;;;;;;5031678;28;20505;-72
2021/12/09 09:08:30;;;;;;;13.00;4.07;;;;;;;;;;5031123;28;20143;-72
2021/12/09 09:10:55;;;;;;;14.43;5.18;;;;;;;;;;5030849;28;20022;-72
2021/12/09 09:13:21;;;;;;;10.77;4.07;;;;;;;;;;5031298;28;20482;-72
2021/12/09 09:15:49;;;;;;;6.80;2.47;;;;;;;;;;5030202;28;20025;-73
2021/12/09 09:18:15;;;;;;;21.60;4.35;;;;;;;;;;5030779;28;20028;-73
2021/12/09 09:20:40;;;;;;;7.85;2.72;;;;;;;;;;5031032;28;20497;-71
2021/12/09 09:23:10;;;;;;;8.40;3.25;;;;;;;;;;5030271;28;20030;-71
2021/12/09 09:25:35;;;;;;;10.75;3.25;;;;;;;;;;5029601;28;20093;-72
2021/12/09 09:28:01;;;;;;;15.15;4.07;;;;;;;;;;5012527;28;20246;-73
2021/12/09 09:30:34;;;;;;;9.05;4.00;;;;;;;;;;5030833;28;20456;-72
2021/12/09 09:33:00;;;;;;;12.95;4.35;;;;;;;;;;5030936;28;20029;-72
2021/12/09 09:35:25;;;;;;;5.70;2.15;;;;;;;;;;5030272;28;20727;-73
2021/12/09 09:37:50;;;;;;;13.85;4.07;;;;;;;;;;5030462;28;20164;-72
2021/12/09 09:40:17;;;;;;;4.82;3.17;;;;;;;;;;5012588;28;20033;-73
2021/12/09 09:45:09;;;;;;;6.07;2.55;;;;;;;;;;5030185;28;20096;-72
2021/12/09 09:47:34;;;;;;;6.57;2.88;;;;;;;;;;5030471;28;20105;-72
2021/12/09 09:49:59;;;;;;;8.07;3.30;;;;;;;;;;5030365;28;22074;-70
2021/12/09 09:52:25;;;;;;;10.98;3.03;;;;;;;;;;5030071;28;20464;-73
2021/12/09 09:54:51;;;;;;;9.35;3.10;;;;;;;;;;5030288;28;20087;-73
2021/12/09 09:57:16;;;;;;;9.95;3.45;;;;;;;;;;5012074;28;20095;-73
2021/12/09 09:59:42;;;;;;;12.15;4.88;;;;;;;;;;5030547;28;20096;-71
2021/12/09 10:02:08;;;;;;;11.13;4.07;;;;;;;;;;5028873;28;20087;-73
2021/12/09 10:04:44;;;;;;;4.20;2.03;;;;;;;;;;5029862;28;20026;-72
2021/12/09 10:07:09;;;;;;;12.73;3.50;;;;;;;;;;5030412;28;20432;-73
2021/12/09 10:09:35;;;;;;;4.43;1.75;;;;;;;;;;5029910;28;20242;-73
2021/12/09 10:12:01;;;;;;;7.33;2.50;;;;;;;;;;5029636;28;20546;-72
2021/12/09 10:14:28;;;;;;;7.85;2.60;;;;;;;;;;5030322;28;20248;-72
2021/12/09 10:17:08;;;;;;;13.50;3.90;;;;;;;;;;5030117;28;20100;-72
2021/12/09 10:19:35;;;;;;;3.53;2.25;;;;;;;;;;5011646;28;20020;-72
2021/12/09 10:22:06;;;;;;;6.53;2.85;;;;;;;;;;5029654;28;20100;-72
2021/12/09 10:24:31;;;;;;;13.20;3.83;;;;;;;;;;5030323;28;20022;-72
2021/12/09 10:26:57;;;;;;;12.48;4.50;;;;;;;;;;5030034;28;20021;-72
2021/12/09 10:29:35;;;;;;;14.02;2.90;;;;;;;;;;5030107;28;20026;-72
2021/12/09 10:32:03;;;;;;;5.72;2.78;;;;;;;;;;5011646;28;20021;-72
2021/12/09 10:34:41;;;;;;;7.97;2.83;;;;;;;;;;5030227;28;20017;-72
2021/12/09 10:37:09;;;;;;;2.72;1.40;;;;;;;;;;5029334;28;20018;-73
2021/12/09 10:39:53;;;;;;;11.05;2.97;;;;;;;;;;5031251;28;20424;-73
2021/12/09 10:42:24;;;;;;;13.30;4.00;;;;;;;;;;5034018;28;20083;-70
2021/12/09 10:44:51;;;;;;;12.52;3.80;;;;;;;;;;5033479;28;20429;-72
2021/12/09 10:47:36;;;;;;;7.90;3.47;;;;;;;;;;5033916;28;20425;-73
2021/12/09 10:50:40;;;;;;;13.95;4.15;;;;;;;;;;5033654;28;20033;-71
2021/12/09 10:53:00;;;;;;;16.33;3.90;;;;;;;;;;5029021;28;20025;-72
2021/12/09 10:55:30;;;;;;;6.53;2.22;;;;;;;;;;5030431;28;20029;-72
2021/12/09 10:58:00;;;;;;;8.68;4.10;;;;;;;;;;5033224;28;20203;-71
2021/12/09 11:00:27;;;;;;;3.38;1.70;;;;;;;;;;5032722;28;20029;-71
2021/12/09 11:03:11;;;;;;;12.07;3.30;;;;;;;;;;5033014;28;20021;-72
2021/12/09 11:05:56;;;;;;;8.25;2.92;;;;;;;;;;5019326;28;20025;-72
2021/12/09 11:08:28;;;;;;;13.95;4.72;;;;;;;;;;5032561;28;20034;-71
2021/12/09 11:10:59;;;;;;;9.30;3.42;;;;;;;;;;5032621;28;20508;-71
2021/12/09 11:13:25;;;;;;;6.22;3.15;;;;;;;;;;5032826;28;20029;-72
2021/12/09 11:15:55;;;;;;;12.40;3.53;;;;;;;;;;5032614;28;20022;-72
2021/12/09 11:18:30;;;;;;;15.77;5.50;;;;;;;;;;5032841;28;20030;-72
2021/12/09 11:20:55;;;;;;;11.68;3.17;;;;;;;;;;5032869;28;20021;-72
2021/12/09 11:23:52;;;;;;;4.13;2.08;;;;;;;;;;5032700;28;20039;-72
2021/12/09 11:26:18;;;;;;;14.85;2.63;;;;;;;;;;5016624;28;20098;-72
2021/12/09 11:29:04;;;;;;;7.40;3.05;;;;;;;;;;5015239;28;20466;-72
2021/12/09 11:31:33;;;;;;;14.73;2.35;;;;;;;;;;5032842;28;20024;-72
2021/12/09 11:34:03;;;;;;;13.98;5.03;;;;;;;;;;5032935;28;20021;-69
2021/12/09 11:36:46;;;;;;;7.88;3.17;;;;;;;;;;5028496;28;20560;-71
2021/12/09 11:39:18;;;;;;;11.05;3.05;;;;;;;;;;5032719;28;20094;-70
2021/12/09 11:41:44;;;;;;;11.90;3.97;;;;;;;;;;5032836;28;20018;-72
2021/12/09 11:44:10;;;;;;;5.53;2.35;;;;;;;;;;5032166;28;20021;-71
2021/12/09 11:46:36;;;;;;;9.57;1.65;;;;;;;;;;5032941;28;20024;-72
2021/12/09 11:49:02;;;;;;;23.60;3.95;;;;;;;;;;5032839;28;20075;-71
2021/12/09 11:51:27;;;;;;;9.45;2.50;;;;;;;;;;5031887;28;20557;-72
2021/12/09 11:53:56;;;;;;;9.00;2.25;;;;;;;;;;5028140;28;20454;-72
2021/12/09 11:59:19;;;;;;;9.32;4.10;;;;;;;;;;5032479;28;20045;-70
2021/12/09 12:07:18;;;;;;;9.45;2.72;;;;;;;;;;5024198;28;20117;-71
2021/12/09 12:15:17;;;;;;;7.25;2.63;;;;;;;;;;5032052;28;20079;-71
2021/12/09 12:18:10;;;;;;;18.15;1.85;;;;;;;;;;5032028;28;20030;-71
2021/12/09 12:20:42;;;;;;;4.43;2.00;;;;;;;;;;5032390;28;20435;-70
2021/12/09 12:23:27;;;;;;;21.02;4.68;;;;;;;;;;5031487;28;20473;-71
2021/12/09 12:28:28;;;;;;;4.57;1.98;;;;;;;;;;5032191;28;20492;-71
2021/12/09 12:31:21;;;;;;;18.30;4.13;;;;;;;;;;5031328;28;20060;-72
2021/12/09 12:39:36;;;;;;;8.13;1.97;;;;;;;;;;5031571;28;20033;-71
2021/12/09 12:42:06;;;;;;;10.23;1.90;;;;;;;;;;5031257;28;20743;-71
2021/12/09 12:44:31;;;;;;;6.90;2.20;;;;;;;;;;5030288;28;20030;-70
2021/12/09 12:47:11;;;;;;;12.52;1.40;;;;;;;;;;5012848;28;20394;-71
2021/12/09 12:49:39;;;;;;;4.28;2.28;;;;;;;;;;5031381;28;20021;-71
2021/12/09 12:52:09;;;;;;;5.72;2.38;;;;;;;;;;5031068;28;20021;-71
2021/12/09 12:57:25;;;;;;;5.82;1.83;;;;;;;;;;5031681;28;20040;-71
2021/12/09 13:00:00;;;;;;;12.20;2.22;;;;;;;;;;5031894;28;20165;-70
2021/12/09 13:05:24;;;;;;;13.02;2.28;;;;;;;;;;5002197;28;20513;-70
2021/12/09 13:10:46;;;;;;;16.27;3.30;;;;;;;;;;5031233;28;20175;-71
2021/12/09 13:16:00;;;;;;;6.80;2.25;;;;;;;;;;5031274;28;20071;-71
2021/12/09 13:18:44;;;;;;;9.13;2.53;;;;;;;;;;5031055;28;20025;-71
2021/12/09 13:21:28;;;;;;;14.35;3.13;;;;;;;;;;5031123;28;20067;-71
2021/12/09 13:24:16;;;;;;;10.40;2.75;;;;;;;;;;5030762;28;20104;-71
2021/12/09 13:27:00;;;;;;;14.00;2.70;;;;;;;;;;5031026;28;20117;-71
2021/12/09 13:29:37;;;;;;;4.70;2.30;;;;;;;;;;5031240;28;20018;-71
2021/12/09 13:32:19;;;;;;;10.65;2.70;;;;;;;;;;5030427;28;20033;-71
2021/12/09 13:35:08;;;;;;;15.13;3.47;;;;;;;;;;5030609;28;20072;-71
2021/12/09 13:38:04;;;;;;;8.15;2.15;;;;;;;;;;5030740;28;20024;-70
2021/12/09 13:40:40;;;;;;;2.63;0.77;;;;;;;;;;5029461;28;20052;-71
2021/12/09 13:46:08;;;;;;;3.15;1.52;;;;;;;;;;5030171;28;20027;-71
2021/12/09 13:48:45;;;;;;;9.82;2.90;;;;;;;;;;5024087;28;20114;-71
2021/12/09 13:51:40;;;;;;;7.18;2.22;;;;;;;;;;5030532;28;20029;-71
2021/12/09 13:54:24;;;;;;;12.60;2.20;;;;;;;;;;5013512;28;20025;-71
2021/12/09 13:56:53;;;;;;;11.80;2.65;;;;;;;;;;5020389;28;20022;-71
2021/12/09 13:59:21;;;;;;;10.45;2.78;;;;;;;;;;5029934;28;20044;-70
2021/12/09 14:01:47;;;;;;;5.75;1.50;;;;;;;;;;5011870;28;20041;-71
2021/12/09 14:04:13;;;;;;;4.60;1.90;;;;;;;;;;5012312;28;20529;-71
2021/12/09 14:06:55;;;;;;;14.05;3.42;;;;;;;;;;5030398;28;20026;-71
2021/12/09 14:09:21;;;;;;;3.75;2.22;;;;;;;;;;5028321;28;20025;-71
2021/12/09 14:11:49;;;;;;;12.52;2.72;;;;;;;;;;5034962;28;20641;-71
2021/12/09 14:14:19;;;;;;;4.38;1.63;;;;;;;;;;5029965;28;20017;-70
2021/12/09 14:17:02;;;;;;;4.78;1.88;;;;;;;;;;5024864;28;20061;-70
2021/12/09 14:22:23;;;;;;;11.85;2.97;;;;;;;;;;5029578;28;20036;-71
2021/12/09 14:24:48;;;;;;;10.18;3.17;;;;;;;;;;5029880;28;20045;-70
2021/12/09 14:27:15;;;;;;;14.15;3.05;;;;;;;;;;5030426;28;20103;-71
2021/12/09 14:29:43;;;;;;;5.78;2.50;;;;;;;;;;5029970;28;20530;-70
2021/12/09 14:32:08;;;;;;;5.15;1.90;;;;;;;;;;5011886;28;20021;-70
2021/12/09 14:34:41;;;;;;;4.87;1.47;;;;;;;;;;5028501;28;20577;-71
2021/12/09 14:37:07;;;;;;;6.05;1.88;;;;;;;;;;5033307;28;20407;-70
2021/12/09 14:39:32;;;;;;;7.70;2.20;;;;;;;;;;5029149;28;20100;-71
2021/12/09 14:42:10;;;;;;;5.25;1.77;;;;;;;;;;5023795;28;20037;-71
2021/12/09 14:44:36;;;;;;;7.78;3.17;;;;;;;;;;5007777;28;20056;-71
2021/12/09 14:47:13;;;;;;;9.05;1.55;;;;;;;;;;5006549;28;20068;-71
2021/12/09 14:49:43;;;;;;;4.22;1.98;;;;;;;;;;5019273;28;20079;-71
2021/12/09 14:52:09;;;;;;;5.75;2.15;;;;;;;;;;5025448;28;20104;-71
2021/12/09 14:54:34;;;;;;;4.30;1.98;;;;;;;;;;5028871;28;20399;-71
2021/12/09 14:57:17;;;;;;;7.35;2.50;;;;;;;;;;5029954;28;20014;-71
2021/12/09 14:59:45;;;;;;;19.40;2.53;;;;;;;;;;5027256;28;20618;-71
2021/12/09 15:02:29;;;;;;;7.28;2.67;;;;;;;;;;5025798;28;20116;-71
2021/12/09 15:05:02;;;;;;;12.35;4.95;;;;;;;;;;5021981;28;20656;-71
2021/12/09 15:07:47;;;;;;;2.17;1.23;;;;;;;;;;5021824;28;20064;-70
2021/12/09 15:10:13;;;;;;;4.57;2.03;;;;;;;;;;5012827;28;20021;-71
2021/12/09 15:12:39;;;;;;;5.53;2.00;;;;;;;;;;5012113;28;20053;-71
2021/12/09 15:15:06;;;;;;;3.75;1.33;;;;;;;;;;4997965;28;20041;-71
2021/12/09 15:17:31;;;;;;;3.83;1.25;;;;;;;;;;5022203;28;20087;-71
2021/12/09 15:19:58;;;;;;;5.18;2.00;;;;;;;;;;5027377;28;20366;-71
2021/12/09 15:22:25;;;;;;;2.75;1.50;;;;;;;;;;5027600;28;20667;-71
2021/12/09 15:25:04;;;;;;;5.15;1.50;;;;;;;;;;5028871;28;20021;-71
2021/12/09 15:27:48;;;;;;;6.85;1.92;;;;;;;;;;5031280;28;20021;-71
2021/12/09 15:30:13;;;;;;;4.75;1.60;;;;;;;;;;5030456;28;20105;-71
2021/12/09 15:32:57;;;;;;;6.65;2.20;;;;;;;;;;5031168;28;20097;-71
2021/12/09 15:35:23;;;;;;;7.93;2.97;;;;;;;;;;5029379;28;20643;-71